sensor_id;sensor_type;location;lat;lon;timestamp;P1;durP1;ratioP1;P2;durP2;ratioP2
32321;SDS011;61553;48.994;8.940;2023-04-22T00:01:19;11.75;;;6.93;;
32321;SDS011;61553;48.994;8.940;2023-04-22T00:03:45;12.48;;;7.60;;
32321;SDS011;61553;48.994;8.940;2023-04-22T00:06:11;13.45;;;9.07;;
32321;SDS011;61553;48.994;8.940;2023-04-22T00:08:37;16.25;;;9.48;;
32321;SDS011;61553;48.994;8.940;2023-04-22T00:11:02;13.88;;;9.68;;
32321;SDS011;61553;48.994;8.940;2023-04-22T00:13:28;14.63;;;9.55;;
32321;SDS011;61553;48.994;8.940;2023-04-22T00:15:54;15.02;;;9.90;;
32321;SDS011;61553;48.994;8.940;2023-04-22T00:18:19;11.85;;;8.45;;
32321;SDS011;61553;48.994;8.940;2023-04-22T00:20:46;10.65;;;7.78;;
32321;SDS011;61553;48.994;8.940;2023-04-22T00:23:11;14.13;;;8.38;;
32321;SDS011;61553;48.994;8.940;2023-04-22T00:25:37;46.70;;;20.20;;
32321;SDS011;61553;48.994;8.940;2023-04-22T00:28:03;28.83;;;14.57;;
32321;SDS011;61553;48.994;8.940;2023-04-22T00:30:29;18.42;;;11.63;;
32321;SDS011;61553;48.994;8.940;2023-04-22T00:32:55;12.35;;;7.63;;
32321;SDS011;61553;48.994;8.940;2023-04-22T00:35:21;10.73;;;7.20;;
32321;SDS011;61553;48.994;8.940;2023-04-22T00:37:47;12.88;;;6.93;;
32321;SDS011;61553;48.994;8.940;2023-04-22T00:40:12;16.92;;;8.38;;
32321;SDS011;61553;48.994;8.940;2023-04-22T00:42:38;12.60;;;7.93;;
32321;SDS011;61553;48.994;8.940;2023-04-22T00:45:05;10.35;;;7.13;;
32321;SDS011;61553;48.994;8.940;2023-04-22T00:47:35;10.70;;;6.63;;
32321;SDS011;61553;48.994;8.940;2023-04-22T00:50:01;9.98;;;6.63;;
32321;SDS011;61553;48.994;8.940;2023-04-22T00:52:27;11.88;;;7.65;;
32321;SDS011;61553;48.994;8.940;2023-04-22T00:54:53;12.13;;;8.23;;
32321;SDS011;61553;48.994;8.940;2023-04-22T00:57:19;10.57;;;7.20;;
32321;SDS011;61553;48.994;8.940;2023-04-22T00:59:45;8.93;;;5.95;;
32321;SDS011;61553;48.994;8.940;2023-04-22T01:02:11;8.55;;;5.70;;
32321;SDS011;61553;48.994;8.940;2023-04-22T01:04:37;9.73;;;5.75;;
32321;SDS011;61553;48.994;8.940;2023-04-22T01:07:03;10.00;;;6.78;;
32321;SDS011;61553;48.994;8.940;2023-04-22T01:09:29;11.25;;;7.50;;
32321;SDS011;61553;48.994;8.940;2023-04-22T01:11:55;13.32;;;8.50;;
32321;SDS011;61553;48.994;8.940;2023-04-22T01:14:21;12.10;;;8.07;;
32321;SDS011;61553;48.994;8.940;2023-04-22T01:16:47;10.93;;;7.38;;
32321;SDS011;61553;48.994;8.940;2023-04-22T01:19:13;8.35;;;6.35;;
32321;SDS011;61553;48.994;8.940;2023-04-22T01:21:39;12.20;;;6.90;;
32321;SDS011;61553;48.994;8.940;2023-04-22T01:24:09;10.25;;;6.15;;
32321;SDS011;61553;48.994;8.940;2023-04-22T01:26:35;8.93;;;6.00;;
32321;SDS011;61553;48.994;8.940;2023-04-22T01:29:01;8.65;;;5.72;;
32321;SDS011;61553;48.994;8.940;2023-04-22T01:31:28;9.85;;;5.93;;
32321;SDS011;61553;48.994;8.940;2023-04-22T01:33:53;9.40;;;5.68;;
32321;SDS011;61553;48.994;8.940;2023-04-22T01:36:19;7.63;;;5.35;;
32321;SDS011;61553;48.994;8.940;2023-04-22T01:38:45;8.05;;;5.38;;
32321;SDS011;61553;48.994;8.940;2023-04-22T01:41:11;9.30;;;6.07;;
32321;SDS011;61553;48.994;8.940;2023-04-22T01:43:37;10.40;;;5.68;;
32321;SDS011;61553;48.994;8.940;2023-04-22T01:46:04;6.95;;;4.85;;
32321;SDS011;61553;48.994;8.940;2023-04-22T01:48:30;8.50;;;4.95;;
32321;SDS011;61553;48.994;8.940;2023-04-22T01:50:56;7.00;;;4.93;;
32321;SDS011;61553;48.994;8.940;2023-04-22T01:53:22;10.05;;;5.15;;
32321;SDS011;61553;48.994;8.940;2023-04-22T01:55:48;7.75;;;5.40;;
32321;SDS011;61553;48.994;8.940;2023-04-22T01:58:13;10.50;;;4.80;;
32321;SDS011;61553;48.994;8.940;2023-04-22T02:00:39;8.82;;;5.13;;
32321;SDS011;61553;48.994;8.940;2023-04-22T02:03:04;9.10;;;5.38;;
32321;SDS011;61553;48.994;8.940;2023-04-22T02:05:30;7.20;;;5.10;;
32321;SDS011;61553;48.994;8.940;2023-04-22T02:07:56;7.78;;;5.45;;
32321;SDS011;61553;48.994;8.940;2023-04-22T02:10:21;7.63;;;5.15;;
32321;SDS011;61553;48.994;8.940;2023-04-22T02:12:48;8.77;;;5.22;;
32321;SDS011;61553;48.994;8.940;2023-04-22T02:15:13;6.38;;;4.78;;
32321;SDS011;61553;48.994;8.940;2023-04-22T02:17:40;6.93;;;4.50;;
32321;SDS011;61553;48.994;8.940;2023-04-22T02:20:06;7.72;;;4.18;;
32321;SDS011;61553;48.994;8.940;2023-04-22T02:22:34;10.75;;;6.75;;
32321;SDS011;61553;48.994;8.940;2023-04-22T02:25:00;8.77;;;6.07;;
32321;SDS011;61553;48.994;8.940;2023-04-22T02:27:27;10.98;;;6.47;;
32321;SDS011;61553;48.994;8.940;2023-04-22T02:29:52;12.23;;;7.47;;
32321;SDS011;61553;48.994;8.940;2023-04-22T02:32:18;8.32;;;5.72;;
32321;SDS011;61553;48.994;8.940;2023-04-22T02:34:44;8.00;;;6.13;;
32321;SDS011;61553;48.994;8.940;2023-04-22T02:37:11;8.48;;;5.72;;
32321;SDS011;61553;48.994;8.940;2023-04-22T02:39:36;10.48;;;6.38;;
32321;SDS011;61553;48.994;8.940;2023-04-22T02:42:02;9.63;;;6.03;;
32321;SDS011;61553;48.994;8.940;2023-04-22T02:44:28;10.60;;;6.50;;
32321;SDS011;61553;48.994;8.940;2023-04-22T02:46:53;7.90;;;4.72;;
32321;SDS011;61553;48.994;8.940;2023-04-22T02:49:19;9.93;;;4.88;;
32321;SDS011;61553;48.994;8.940;2023-04-22T02:51:45;9.35;;;5.40;;
32321;SDS011;61553;48.994;8.940;2023-04-22T02:54:10;8.32;;;5.65;;
32321;SDS011;61553;48.994;8.940;2023-04-22T02:56:36;9.95;;;5.53;;
32321;SDS011;61553;48.994;8.940;2023-04-22T02:59:02;9.20;;;6.45;;
32321;SDS011;61553;48.994;8.940;2023-04-22T03:01:27;10.00;;;6.43;;
32321;SDS011;61553;48.994;8.940;2023-04-22T03:03:53;8.60;;;5.55;;
32321;SDS011;61553;48.994;8.940;2023-04-22T03:06:19;10.77;;;6.50;;
32321;SDS011;61553;48.994;8.940;2023-04-22T03:08:45;13.00;;;7.78;;
32321;SDS011;61553;48.994;8.940;2023-04-22T03:11:11;9.95;;;6.43;;
32321;SDS011;61553;48.994;8.940;2023-04-22T03:13:37;13.05;;;6.43;;
32321;SDS011;61553;48.994;8.940;2023-04-22T03:16:03;12.75;;;6.60;;
32321;SDS011;61553;48.994;8.940;2023-04-22T03:18:29;13.43;;;7.18;;
32321;SDS011;61553;48.994;8.940;2023-04-22T03:20:55;12.55;;;7.43;;
32321;SDS011;61553;48.994;8.940;2023-04-22T03:23:20;15.15;;;8.93;;
32321;SDS011;61553;48.994;8.940;2023-04-22T03:25:46;16.52;;;9.52;;
32321;SDS011;61553;48.994;8.940;2023-04-22T03:28:12;16.10;;;10.18;;
32321;SDS011;61553;48.994;8.940;2023-04-22T03:30:37;16.60;;;10.40;;
32321;SDS011;61553;48.994;8.940;2023-04-22T03:33:03;18.08;;;11.20;;
32321;SDS011;61553;48.994;8.940;2023-04-22T03:35:29;18.90;;;11.80;;
32321;SDS011;61553;48.994;8.940;2023-04-22T03:37:55;19.52;;;11.00;;
32321;SDS011;61553;48.994;8.940;2023-04-22T03:40:20;18.83;;;12.98;;
32321;SDS011;61553;48.994;8.940;2023-04-22T03:42:46;20.38;;;13.35;;
32321;SDS011;61553;48.994;8.940;2023-04-22T03:45:11;17.70;;;12.35;;
32321;SDS011;61553;48.994;8.940;2023-04-22T03:47:37;17.58;;;11.90;;
32321;SDS011;61553;48.994;8.940;2023-04-22T03:50:03;16.02;;;11.00;;
32321;SDS011;61553;48.994;8.940;2023-04-22T03:52:29;16.02;;;10.38;;
32321;SDS011;61553;48.994;8.940;2023-04-22T03:54:54;18.92;;;11.45;;
32321;SDS011;61553;48.994;8.940;2023-04-22T03:57:20;18.52;;;12.00;;
32321;SDS011;61553;48.994;8.940;2023-04-22T03:59:45;20.25;;;13.13;;
32321;SDS011;61553;48.994;8.940;2023-04-22T04:02:11;21.63;;;13.48;;
32321;SDS011;61553;48.994;8.940;2023-04-22T04:04:37;19.80;;;12.57;;
32321;SDS011;61553;48.994;8.940;2023-04-22T04:07:02;22.77;;;13.57;;
32321;SDS011;61553;48.994;8.940;2023-04-22T04:09:28;16.95;;;10.90;;
32321;SDS011;61553;48.994;8.940;2023-04-22T04:11:53;16.00;;;11.32;;
32321;SDS011;61553;48.994;8.940;2023-04-22T04:14:20;16.00;;;10.40;;
32321;SDS011;61553;48.994;8.940;2023-04-22T04:16:46;19.80;;;11.38;;
32321;SDS011;61553;48.994;8.940;2023-04-22T04:19:11;15.55;;;10.30;;
32321;SDS011;61553;48.994;8.940;2023-04-22T04:21:37;19.13;;;11.55;;
32321;SDS011;61553;48.994;8.940;2023-04-22T04:24:03;19.27;;;13.48;;
32321;SDS011;61553;48.994;8.940;2023-04-22T04:26:30;20.10;;;12.30;;
32321;SDS011;61553;48.994;8.940;2023-04-22T04:28:56;21.77;;;13.63;;
32321;SDS011;61553;48.994;8.940;2023-04-22T04:31:22;23.20;;;14.93;;
32321;SDS011;61553;48.994;8.940;2023-04-22T04:33:48;22.38;;;15.48;;
32321;SDS011;61553;48.994;8.940;2023-04-22T04:36:14;20.92;;;13.90;;
32321;SDS011;61553;48.994;8.940;2023-04-22T04:38:40;20.40;;;14.10;;
32321;SDS011;61553;48.994;8.940;2023-04-22T04:41:06;24.20;;;15.00;;
32321;SDS011;61553;48.994;8.940;2023-04-22T04:43:34;24.17;;;16.25;;
32321;SDS011;61553;48.994;8.940;2023-04-22T04:46:00;26.00;;;16.65;;
32321;SDS011;61553;48.994;8.940;2023-04-22T04:48:26;24.42;;;15.68;;
32321;SDS011;61553;48.994;8.940;2023-04-22T04:50:52;24.77;;;16.73;;
32321;SDS011;61553;48.994;8.940;2023-04-22T04:53:19;26.67;;;17.20;;
32321;SDS011;61553;48.994;8.940;2023-04-22T04:55:46;25.23;;;16.88;;
32321;SDS011;61553;48.994;8.940;2023-04-22T04:58:12;26.70;;;16.75;;
32321;SDS011;61553;48.994;8.940;2023-04-22T05:00:37;23.23;;;15.50;;
32321;SDS011;61553;48.994;8.940;2023-04-22T05:03:03;25.52;;;16.13;;
32321;SDS011;61553;48.994;8.940;2023-04-22T05:05:29;34.50;;;19.30;;
32321;SDS011;61553;48.994;8.940;2023-04-22T05:07:55;32.88;;;19.52;;
32321;SDS011;61553;48.994;8.940;2023-04-22T05:10:20;23.17;;;15.13;;
32321;SDS011;61553;48.994;8.940;2023-04-22T05:12:46;24.38;;;15.43;;
32321;SDS011;61553;48.994;8.940;2023-04-22T05:15:12;28.55;;;16.38;;
32321;SDS011;61553;48.994;8.940;2023-04-22T05:17:38;32.35;;;16.70;;
32321;SDS011;61553;48.994;8.940;2023-04-22T05:20:04;27.55;;;17.45;;
32321;SDS011;61553;48.994;8.940;2023-04-22T05:22:30;24.88;;;17.13;;
32321;SDS011;61553;48.994;8.940;2023-04-22T05:24:56;24.05;;;17.25;;
32321;SDS011;61553;48.994;8.940;2023-04-22T05:27:22;28.83;;;19.17;;
32321;SDS011;61553;48.994;8.940;2023-04-22T05:29:47;30.98;;;18.95;;
32321;SDS011;61553;48.994;8.940;2023-04-22T05:32:14;29.63;;;20.20;;
32321;SDS011;61553;48.994;8.940;2023-04-22T05:34:40;31.60;;;21.17;;
32321;SDS011;61553;48.994;8.940;2023-04-22T05:37:06;42.28;;;28.65;;
32321;SDS011;61553;48.994;8.940;2023-04-22T05:39:32;46.63;;;31.13;;
32321;SDS011;61553;48.994;8.940;2023-04-22T05:41:57;26.35;;;17.45;;
32321;SDS011;61553;48.994;8.940;2023-04-22T05:44:23;25.20;;;17.63;;
32321;SDS011;61553;48.994;8.940;2023-04-22T05:46:49;29.38;;;20.13;;
32321;SDS011;61553;48.994;8.940;2023-04-22T05:49:14;24.55;;;16.33;;
32321;SDS011;61553;48.994;8.940;2023-04-22T05:51:40;20.35;;;13.65;;
32321;SDS011;61553;48.994;8.940;2023-04-22T05:54:06;21.38;;;14.00;;
32321;SDS011;61553;48.994;8.940;2023-04-22T05:56:32;16.80;;;12.00;;
32321;SDS011;61553;48.994;8.940;2023-04-22T05:58:57;16.95;;;10.75;;
32321;SDS011;61553;48.994;8.940;2023-04-22T06:01:23;16.05;;;11.50;;
32321;SDS011;61553;48.994;8.940;2023-04-22T06:03:49;16.27;;;11.10;;
32321;SDS011;61553;48.994;8.940;2023-04-22T06:06:15;15.20;;;10.80;;
32321;SDS011;61553;48.994;8.940;2023-04-22T06:08:41;15.48;;;10.75;;
32321;SDS011;61553;48.994;8.940;2023-04-22T06:11:06;13.73;;;9.90;;
32321;SDS011;61553;48.994;8.940;2023-04-22T06:13:32;17.88;;;12.43;;
32321;SDS011;61553;48.994;8.940;2023-04-22T06:15:58;12.75;;;9.05;;
32321;SDS011;61553;48.994;8.940;2023-04-22T06:18:24;11.82;;;8.27;;
32321;SDS011;61553;48.994;8.940;2023-04-22T06:20:50;13.05;;;8.80;;
32321;SDS011;61553;48.994;8.940;2023-04-22T06:23:16;11.82;;;8.15;;
32321;SDS011;61553;48.994;8.940;2023-04-22T06:25:42;13.52;;;8.93;;
32321;SDS011;61553;48.994;8.940;2023-04-22T06:28:07;11.63;;;8.60;;
32321;SDS011;61553;48.994;8.940;2023-04-22T06:30:33;12.75;;;8.02;;
32321;SDS011;61553;48.994;8.940;2023-04-22T06:32:59;14.52;;;10.02;;
32321;SDS011;61553;48.994;8.940;2023-04-22T06:35:25;10.48;;;7.63;;
32321;SDS011;61553;48.994;8.940;2023-04-22T06:37:51;13.15;;;7.93;;
32321;SDS011;61553;48.994;8.940;2023-04-22T06:40:16;10.75;;;7.03;;
32321;SDS011;61553;48.994;8.940;2023-04-22T06:42:42;9.93;;;6.47;;
32321;SDS011;61553;48.994;8.940;2023-04-22T06:45:08;9.73;;;6.57;;
32321;SDS011;61553;48.994;8.940;2023-04-22T06:47:36;9.88;;;6.88;;
32321;SDS011;61553;48.994;8.940;2023-04-22T06:50:03;14.20;;;8.75;;
32321;SDS011;61553;48.994;8.940;2023-04-22T06:52:31;11.25;;;8.70;;
32321;SDS011;61553;48.994;8.940;2023-04-22T06:54:56;9.25;;;7.28;;
32321;SDS011;61553;48.994;8.940;2023-04-22T06:57:22;11.48;;;7.55;;
32321;SDS011;61553;48.994;8.940;2023-04-22T06:59:47;10.65;;;6.55;;
32321;SDS011;61553;48.994;8.940;2023-04-22T07:02:13;13.05;;;8.10;;
32321;SDS011;61553;48.994;8.940;2023-04-22T07:04:39;9.75;;;7.53;;
32321;SDS011;61553;48.994;8.940;2023-04-22T07:07:04;9.48;;;7.47;;
32321;SDS011;61553;48.994;8.940;2023-04-22T07:09:30;9.73;;;7.10;;
32321;SDS011;61553;48.994;8.940;2023-04-22T07:11:55;11.32;;;7.90;;
32321;SDS011;61553;48.994;8.940;2023-04-22T07:14:24;11.60;;;6.82;;
32321;SDS011;61553;48.994;8.940;2023-04-22T07:16:50;11.57;;;7.78;;
32321;SDS011;61553;48.994;8.940;2023-04-22T07:19:16;15.85;;;9.10;;
32321;SDS011;61553;48.994;8.940;2023-04-22T07:21:41;9.13;;;6.88;;
32321;SDS011;61553;48.994;8.940;2023-04-22T07:24:07;11.80;;;7.03;;
32321;SDS011;61553;48.994;8.940;2023-04-22T07:26:36;8.73;;;6.88;;
32321;SDS011;61553;48.994;8.940;2023-04-22T07:29:02;9.60;;;7.00;;
32321;SDS011;61553;48.994;8.940;2023-04-22T07:31:28;9.05;;;7.10;;
32321;SDS011;61553;48.994;8.940;2023-04-22T07:33:53;9.20;;;6.22;;
32321;SDS011;61553;48.994;8.940;2023-04-22T07:36:19;9.20;;;6.47;;
32321;SDS011;61553;48.994;8.940;2023-04-22T07:38:44;7.13;;;5.55;;
32321;SDS011;61553;48.994;8.940;2023-04-22T07:41:10;10.02;;;6.45;;
32321;SDS011;61553;48.994;8.940;2023-04-22T07:43:36;9.38;;;6.70;;
32321;SDS011;61553;48.994;8.940;2023-04-22T07:46:01;10.00;;;6.78;;
32321;SDS011;61553;48.994;8.940;2023-04-22T07:48:27;9.18;;;7.15;;
32321;SDS011;61553;48.994;8.940;2023-04-22T07:50:53;9.65;;;7.20;;
32321;SDS011;61553;48.994;8.940;2023-04-22T07:53:18;9.75;;;7.57;;
32321;SDS011;61553;48.994;8.940;2023-04-22T07:55:44;9.52;;;6.57;;
32321;SDS011;61553;48.994;8.940;2023-04-22T07:58:10;10.30;;;6.97;;
32321;SDS011;61553;48.994;8.940;2023-04-22T08:00:36;9.23;;;7.65;;
32321;SDS011;61553;48.994;8.940;2023-04-22T08:03:02;9.00;;;6.70;;
32321;SDS011;61553;48.994;8.940;2023-04-22T08:05:28;10.27;;;8.35;;
32321;SDS011;61553;48.994;8.940;2023-04-22T08:07:54;11.63;;;8.10;;
32321;SDS011;61553;48.994;8.940;2023-04-22T08:10:20;8.75;;;6.75;;
32321;SDS011;61553;48.994;8.940;2023-04-22T08:12:45;8.40;;;6.68;;
32321;SDS011;61553;48.994;8.940;2023-04-22T08:15:11;8.60;;;6.80;;
32321;SDS011;61553;48.994;8.940;2023-04-22T08:17:37;10.20;;;7.50;;
32321;SDS011;61553;48.994;8.940;2023-04-22T08:20:03;11.02;;;8.70;;
32321;SDS011;61553;48.994;8.940;2023-04-22T08:22:29;10.02;;;7.55;;
32321;SDS011;61553;48.994;8.940;2023-04-22T08:24:56;10.15;;;7.63;;
32321;SDS011;61553;48.994;8.940;2023-04-22T08:27:21;14.80;;;10.90;;
32321;SDS011;61553;48.994;8.940;2023-04-22T08:29:47;10.88;;;6.70;;
32321;SDS011;61553;48.994;8.940;2023-04-22T08:32:12;9.20;;;6.40;;
32321;SDS011;61553;48.994;8.940;2023-04-22T08:34:38;8.40;;;6.75;;
32321;SDS011;61553;48.994;8.940;2023-04-22T08:37:04;9.02;;;5.80;;
32321;SDS011;61553;48.994;8.940;2023-04-22T08:39:29;9.02;;;5.80;;
32321;SDS011;61553;48.994;8.940;2023-04-22T08:41:55;7.28;;;6.30;;
32321;SDS011;61553;48.994;8.940;2023-04-22T08:44:22;8.95;;;6.15;;
32321;SDS011;61553;48.994;8.940;2023-04-22T08:46:48;10.98;;;8.88;;
32321;SDS011;61553;48.994;8.940;2023-04-22T08:49:15;19.83;;;15.93;;
32321;SDS011;61553;48.994;8.940;2023-04-22T08:51:42;9.70;;;7.47;;
32321;SDS011;61553;48.994;8.940;2023-04-22T08:54:09;10.38;;;6.65;;
32321;SDS011;61553;48.994;8.940;2023-04-22T08:56:36;7.45;;;6.10;;
32321;SDS011;61553;48.994;8.940;2023-04-22T08:59:06;9.93;;;6.10;;
32321;SDS011;61553;48.994;8.940;2023-04-22T09:01:37;9.82;;;5.75;;
32321;SDS011;61553;48.994;8.940;2023-04-22T09:04:05;8.38;;;5.60;;
32321;SDS011;61553;48.994;8.940;2023-04-22T09:06:32;7.25;;;5.28;;
32321;SDS011;61553;48.994;8.940;2023-04-22T09:08:58;8.45;;;5.47;;
32321;SDS011;61553;48.994;8.940;2023-04-22T09:11:25;9.52;;;5.82;;
32321;SDS011;61553;48.994;8.940;2023-04-22T09:13:52;8.05;;;4.68;;
32321;SDS011;61553;48.994;8.940;2023-04-22T09:16:18;7.57;;;5.15;;
32321;SDS011;61553;48.994;8.940;2023-04-22T09:18:44;8.48;;;5.47;;
32321;SDS011;61553;48.994;8.940;2023-04-22T09:21:10;7.45;;;5.13;;
32321;SDS011;61553;48.994;8.940;2023-04-22T09:23:46;6.00;;;5.05;;
32321;SDS011;61553;48.994;8.940;2023-04-22T09:26:13;9.88;;;5.38;;
32321;SDS011;61553;48.994;8.940;2023-04-22T09:28:47;6.40;;;4.90;;
32321;SDS011;61553;48.994;8.940;2023-04-22T09:31:16;7.63;;;3.90;;
32321;SDS011;61553;48.994;8.940;2023-04-22T09:33:45;7.38;;;4.63;;
32321;SDS011;61553;48.994;8.940;2023-04-22T09:36:12;7.38;;;4.20;;
32321;SDS011;61553;48.994;8.940;2023-04-22T09:38:38;7.78;;;4.85;;
32321;SDS011;61553;48.994;8.940;2023-04-22T09:41:09;7.75;;;4.47;;
32321;SDS011;61553;48.994;8.940;2023-04-22T09:43:36;5.68;;;3.83;;
32321;SDS011;61553;48.994;8.940;2023-04-22T09:46:02;5.78;;;4.10;;
32321;SDS011;61553;48.994;8.940;2023-04-22T09:48:28;5.80;;;3.80;;
32321;SDS011;61553;48.994;8.940;2023-04-22T09:50:54;6.50;;;3.55;;
32321;SDS011;61553;48.994;8.940;2023-04-22T09:53:20;5.63;;;3.40;;
32321;SDS011;61553;48.994;8.940;2023-04-22T09:55:47;5.13;;;3.55;;
32321;SDS011;61553;48.994;8.940;2023-04-22T09:58:18;4.72;;;3.42;;
32321;SDS011;61553;48.994;8.940;2023-04-22T10:00:52;4.25;;;3.13;;
32321;SDS011;61553;48.994;8.940;2023-04-22T10:03:20;5.50;;;2.80;;
32321;SDS011;61553;48.994;8.940;2023-04-22T10:05:46;7.07;;;2.88;;
32321;SDS011;61553;48.994;8.940;2023-04-22T10:08:13;4.35;;;2.42;;
32321;SDS011;61553;48.994;8.940;2023-04-22T10:10:40;3.70;;;2.60;;
32321;SDS011;61553;48.994;8.940;2023-04-22T10:13:07;5.72;;;2.55;;
32321;SDS011;61553;48.994;8.940;2023-04-22T10:15:34;5.15;;;2.92;;
32321;SDS011;61553;48.994;8.940;2023-04-22T10:18:15;6.00;;;3.25;;
32321;SDS011;61553;48.994;8.940;2023-04-22T10:20:46;5.47;;;3.28;;
32321;SDS011;61553;48.994;8.940;2023-04-22T10:23:17;5.80;;;3.60;;
32321;SDS011;61553;48.994;8.940;2023-04-22T10:25:48;4.53;;;3.20;;
32321;SDS011;61553;48.994;8.940;2023-04-22T10:28:16;5.07;;;3.42;;
32321;SDS011;61553;48.994;8.940;2023-04-22T10:30:42;6.72;;;3.20;;
32321;SDS011;61553;48.994;8.940;2023-04-22T10:36:30;5.28;;;3.45;;
32321;SDS011;61553;48.994;8.940;2023-04-22T10:41:21;4.38;;;2.63;;
32321;SDS011;61553;48.994;8.940;2023-04-22T10:43:54;4.72;;;2.58;;
32321;SDS011;61553;48.994;8.940;2023-04-22T10:47:04;4.10;;;2.90;;
32321;SDS011;61553;48.994;8.940;2023-04-22T10:49:19;5.80;;;3.00;;
32321;SDS011;61553;48.994;8.940;2023-04-22T10:51:53;4.10;;;2.75;;
32321;SDS011;61553;48.994;8.940;2023-04-22T10:57:04;6.07;;;2.60;;
32321;SDS011;61553;48.994;8.940;2023-04-22T10:59:32;4.15;;;2.50;;
32321;SDS011;61553;48.994;8.940;2023-04-22T11:02:14;3.97;;;2.53;;
32321;SDS011;61553;48.994;8.940;2023-04-22T11:04:41;5.53;;;2.35;;
32321;SDS011;61553;48.994;8.940;2023-04-22T11:09:50;4.75;;;2.40;;
32321;SDS011;61553;48.994;8.940;2023-04-22T11:17:39;3.90;;;2.00;;
32321;SDS011;61553;48.994;8.940;2023-04-22T11:20:07;5.28;;;1.90;;
32321;SDS011;61553;48.994;8.940;2023-04-22T11:22:34;6.15;;;2.22;;
32321;SDS011;61553;48.994;8.940;2023-04-22T11:25:01;5.90;;;2.20;;
32321;SDS011;61553;48.994;8.940;2023-04-22T11:27:28;3.38;;;1.80;;
32321;SDS011;61553;48.994;8.940;2023-04-22T11:35:09;5.40;;;2.15;;
32321;SDS011;61553;48.994;8.940;2023-04-22T11:40:09;4.90;;;2.30;;
32321;SDS011;61553;48.994;8.940;2023-04-22T11:42:36;4.53;;;1.90;;
32321;SDS011;61553;48.994;8.940;2023-04-22T11:45:02;4.30;;;2.03;;
32321;SDS011;61553;48.994;8.940;2023-04-22T11:47:30;4.05;;;1.90;;
32321;SDS011;61553;48.994;8.940;2023-04-22T11:49:57;7.30;;;2.40;;
32321;SDS011;61553;48.994;8.940;2023-04-22T11:53:11;6.38;;;2.50;;
32321;SDS011;61553;48.994;8.940;2023-04-22T11:55:12;4.43;;;2.28;;
32321;SDS011;61553;48.994;8.940;2023-04-22T11:57:45;4.40;;;2.20;;
32321;SDS011;61553;48.994;8.940;2023-04-22T12:00:21;4.97;;;2.92;;
32321;SDS011;61553;48.994;8.940;2023-04-22T12:02:58;5.93;;;2.75;;
32321;SDS011;61553;48.994;8.940;2023-04-22T12:05:31;6.63;;;3.15;;
32321;SDS011;61553;48.994;8.940;2023-04-22T12:08:15;6.72;;;2.90;;
32321;SDS011;61553;48.994;8.940;2023-04-22T12:10:52;7.05;;;2.70;;
32321;SDS011;61553;48.994;8.940;2023-04-22T12:13:42;4.38;;;1.98;;
32321;SDS011;61553;48.994;8.940;2023-04-22T12:16:11;7.22;;;2.40;;
32321;SDS011;61553;48.994;8.940;2023-04-22T12:18:38;4.00;;;2.22;;
32321;SDS011;61553;48.994;8.940;2023-04-22T12:21:14;5.03;;;2.40;;
32321;SDS011;61553;48.994;8.940;2023-04-22T12:23:43;7.00;;;3.05;;
32321;SDS011;61553;48.994;8.940;2023-04-22T12:26:13;5.18;;;2.88;;
32321;SDS011;61553;48.994;8.940;2023-04-22T12:28:40;5.18;;;2.42;;
32321;SDS011;61553;48.994;8.940;2023-04-22T12:31:06;8.55;;;3.05;;
32321;SDS011;61553;48.994;8.940;2023-04-22T12:33:33;4.63;;;2.50;;
32321;SDS011;61553;48.994;8.940;2023-04-22T12:35:59;8.18;;;2.38;;
32321;SDS011;61553;48.994;8.940;2023-04-22T12:38:25;3.97;;;2.30;;
32321;SDS011;61553;48.994;8.940;2023-04-22T12:40:51;5.47;;;2.80;;
32321;SDS011;61553;48.994;8.940;2023-04-22T12:43:17;5.60;;;2.22;;
32321;SDS011;61553;48.994;8.940;2023-04-22T12:45:42;5.60;;;2.10;;
32321;SDS011;61553;48.994;8.940;2023-04-22T12:48:08;5.03;;;1.73;;
32321;SDS011;61553;48.994;8.940;2023-04-22T12:50:34;5.40;;;2.10;;
32321;SDS011;61553;48.994;8.940;2023-04-22T12:52:59;5.65;;;2.13;;
32321;SDS011;61553;48.994;8.940;2023-04-22T12:55:25;6.50;;;1.95;;
32321;SDS011;61553;48.994;8.940;2023-04-22T12:57:51;3.92;;;1.98;;
32321;SDS011;61553;48.994;8.940;2023-04-22T13:00:17;5.95;;;1.70;;
32321;SDS011;61553;48.994;8.940;2023-04-22T13:02:44;5.88;;;1.90;;
32321;SDS011;61553;48.994;8.940;2023-04-22T13:05:11;4.40;;;2.03;;
32321;SDS011;61553;48.994;8.940;2023-04-22T13:07:38;5.55;;;1.77;;
32321;SDS011;61553;48.994;8.940;2023-04-22T13:10:05;4.90;;;1.80;;
32321;SDS011;61553;48.994;8.940;2023-04-22T13:12:32;3.85;;;1.70;;
32321;SDS011;61553;48.994;8.940;2023-04-22T13:14:57;3.88;;;1.58;;
32321;SDS011;61553;48.994;8.940;2023-04-22T13:17:23;5.00;;;1.70;;
32321;SDS011;61553;48.994;8.940;2023-04-22T13:19:49;3.70;;;1.48;;
32321;SDS011;61553;48.994;8.940;2023-04-22T13:22:15;4.82;;;1.88;;
32321;SDS011;61553;48.994;8.940;2023-04-22T13:24:41;3.97;;;1.65;;
32321;SDS011;61553;48.994;8.940;2023-04-22T13:27:07;4.25;;;1.85;;
32321;SDS011;61553;48.994;8.940;2023-04-22T13:29:33;7.45;;;1.80;;
32321;SDS011;61553;48.994;8.940;2023-04-22T13:31:59;5.03;;;1.67;;
32321;SDS011;61553;48.994;8.940;2023-04-22T13:34:26;3.67;;;1.67;;
32321;SDS011;61553;48.994;8.940;2023-04-22T13:36:51;3.58;;;1.60;;
32321;SDS011;61553;48.994;8.940;2023-04-22T13:39:17;5.57;;;1.80;;
32321;SDS011;61553;48.994;8.940;2023-04-22T13:41:43;3.22;;;1.73;;
32321;SDS011;61553;48.994;8.940;2023-04-22T13:44:10;9.70;;;2.53;;
32321;SDS011;61553;48.994;8.940;2023-04-22T13:46:36;4.30;;;1.65;;
32321;SDS011;61553;48.994;8.940;2023-04-22T13:49:03;7.40;;;1.60;;
32321;SDS011;61553;48.994;8.940;2023-04-22T13:51:29;4.75;;;1.63;;
32321;SDS011;61553;48.994;8.940;2023-04-22T13:53:56;11.77;;;2.53;;
32321;SDS011;61553;48.994;8.940;2023-04-22T13:56:22;5.07;;;1.73;;
32321;SDS011;61553;48.994;8.940;2023-04-22T13:58:52;6.22;;;1.95;;
32321;SDS011;61553;48.994;8.940;2023-04-22T14:01:17;3.83;;;1.50;;
32321;SDS011;61553;48.994;8.940;2023-04-22T14:03:44;3.42;;;1.70;;
32321;SDS011;61553;48.994;8.940;2023-04-22T14:06:10;4.43;;;1.52;;
32321;SDS011;61553;48.994;8.940;2023-04-22T14:08:37;3.28;;;1.67;;
32321;SDS011;61553;48.994;8.940;2023-04-22T14:11:03;4.63;;;1.35;;
32321;SDS011;61553;48.994;8.940;2023-04-22T14:13:30;4.95;;;1.60;;
32321;SDS011;61553;48.994;8.940;2023-04-22T14:15:56;4.05;;;1.67;;
32321;SDS011;61553;48.994;8.940;2023-04-22T14:18:22;4.45;;;2.50;;
32321;SDS011;61553;48.994;8.940;2023-04-22T14:20:48;4.20;;;1.73;;
32321;SDS011;61553;48.994;8.940;2023-04-22T14:23:15;5.80;;;1.75;;
32321;SDS011;61553;48.994;8.940;2023-04-22T14:25:42;3.70;;;1.40;;
32321;SDS011;61553;48.994;8.940;2023-04-22T14:28:08;5.05;;;3.25;;
32321;SDS011;61553;48.994;8.940;2023-04-22T14:30:34;4.32;;;2.20;;
32321;SDS011;61553;48.994;8.940;2023-04-22T14:33:01;5.97;;;1.88;;
32321;SDS011;61553;48.994;8.940;2023-04-22T14:35:30;7.72;;;2.20;;
32321;SDS011;61553;48.994;8.940;2023-04-22T14:37:55;5.13;;;1.88;;
32321;SDS011;61553;48.994;8.940;2023-04-22T14:40:21;5.07;;;2.00;;
32321;SDS011;61553;48.994;8.940;2023-04-22T14:42:51;4.90;;;1.70;;
32321;SDS011;61553;48.994;8.940;2023-04-22T14:45:18;4.22;;;1.60;;
32321;SDS011;61553;48.994;8.940;2023-04-22T14:47:43;4.85;;;1.67;;
32321;SDS011;61553;48.994;8.940;2023-04-22T14:50:09;3.50;;;1.40;;
32321;SDS011;61553;48.994;8.940;2023-04-22T14:52:35;6.55;;;1.98;;
32321;SDS011;61553;48.994;8.940;2023-04-22T14:55:01;7.63;;;2.08;;
32321;SDS011;61553;48.994;8.940;2023-04-22T14:57:27;5.47;;;1.70;;
32321;SDS011;61553;48.994;8.940;2023-04-22T14:59:53;6.60;;;1.88;;